Time;durP1;ratioP1;P1;durP2;ratioP2;P2;SDS_P1;SDS_P2;PMS_P1;PMS_P2;Temp;Humidity;BMP_temperature;BMP_pressure;BME280_temperature;BME280_humidity;BME280_pressure;Samples;Min_cycle;Max_cycle;Signal;HPM_P1;HPM_P2
2022/11/26 00:00:48;;;;;;;;;;;;;;;;;;2227408;58;1711;-72
2022/11/26 00:03:21;;;;;;;;;;;;;;;;;;2225713;59;1236;-71
2022/11/26 00:05:56;;;;;;;;;;;;;;;;;;2226759;66;1268;-72
2022/11/26 00:08:31;;;;;;;;;;;;;;;;;;2225975;58;1251;-72
2022/11/26 00:11:09;;;;;;;;;;;;;;;;;;2226213;66;1070;-71
2022/11/26 00:13:42;;;;;;;;;;;;;;;;;;2226380;58;2075;-71
2022/11/26 00:16:16;;;;;;;;;;;;;;;;;;2225855;66;1201;-72
2022/11/26 00:18:49;;;;;;;;;;;;;;;;;;2223453;58;1523;-71
2022/11/26 00:21:24;;;;;;;;;;;;;;;;;;2227134;66;1097;-71
2022/11/26 00:23:59;;;;;;;;;;;;;;;;;;2227004;58;1089;-71
2022/11/26 00:26:35;;;;;;;;;;;;;;;;;;2227173;58;1658;-71
2022/11/26 00:29:10;;;;;;;;;;;;;;;;;;2228116;66;1005;-71
2022/11/26 00:31:43;;;;;;;;;;;;;;;;;;2228429;66;1184;-72
2022/11/26 00:34:16;;;;;;;;;;;;;;;;;;2228067;58;1988;-71
2022/11/26 00:36:50;;;;;;;;;;;;;;;;;;2227311;58;1237;-72
2022/11/26 00:39:24;;;;;;;;;;;;;;;;;;2227027;66;1283;-72
2022/11/26 00:42:00;;;;;;;;;;;;;;;;;;2227478;58;1073;-71
2022/11/26 00:44:33;;;;;;;;;;;;;;;;;;2227934;66;1142;-71
2022/11/26 00:47:07;;;;;;;;;;;;;;;;;;2227365;59;1179;-71
2022/11/26 00:49:40;;;;;;;;;;;;;;;;;;2225110;66;1139;-71
2022/11/26 00:52:23;;;;;;;;;;;;;;;;;;2226442;58;1589;-71
2022/11/26 00:54:56;;;;;;;;;;;;;;;;;;2227129;66;1920;-71
2022/11/26 00:57:32;;;;;;;;;;;;;;;;;;2226828;66;1249;-71
2022/11/26 01:00:15;;;;;;;;;;;;;;;;;;2226595;66;1028;-71
2022/11/26 01:02:48;;;;;;;;;;;;;;;;;;2227840;58;1644;-72
2022/11/26 01:05:21;;;;;;;;;;;;;;;;;;2226064;58;1801;-72
2022/11/26 01:07:55;;;;;;;;;;;;;;;;;;2226535;66;1279;-71
2022/11/26 01:10:31;;;;;;;;;;;;;;;;;;2226606;66;1217;-71
2022/11/26 01:13:07;;;;;;;;;;;;;;;;;;2226718;66;994;-71
2022/11/26 01:15:41;;;;;;;;;;;;;;;;;;2226470;66;1951;-71
2022/11/26 01:18:15;;;;;;;;;;;;;;;;;;2226557;58;1193;-72
2022/11/26 01:20:49;;;;;;;;;;;;;;;;;;2227346;66;1130;-71
2022/11/26 01:23:22;;;;;;;;;;;;;;;;;;2226782;58;1129;-71
2022/11/26 01:25:55;;;;;;;;;;;;;;;;;;2226957;58;1490;-71
2022/11/26 01:28:31;;;;;;;;;;;;;;;;;;2226625;58;1680;-71
2022/11/26 01:31:04;;;;;;;;;;;;;;;;;;2226371;58;1944;-71
2022/11/26 01:33:37;;;;;;;;;;;;;;;;;;2225909;58;1927;-71
2022/11/26 01:36:24;;;;;;;;;;;;;;;;;;2226151;58;1339;-72
2022/11/26 01:38:57;;;;;;;;;;;;;;;;;;2227280;66;1007;-71
2022/11/26 01:41:39;;;;;;;;;;;;;;;;;;2226518;66;1164;-71
2022/11/26 01:44:19;;;;;;;;;;;;;;;;;;2226547;66;1198;-71
2022/11/26 01:46:53;;;;;;;;;;;;;;;;;;2225618;58;1690;-71
2022/11/26 01:49:27;;;;;;;;;;;;;;;;;;2226336;58;1383;-71
2022/11/26 01:52:05;;;;;;;;;;;;;;;;;;2226160;58;1230;-71
2022/11/26 01:54:39;;;;;;;;;;;;;;;;;;2228260;66;1983;-71
2022/11/26 01:57:15;;;;;;;;;;;;;;;;;;2226755;58;1235;-71
2022/11/26 01:59:53;;;;;;;;;;;;;;;;;;2227174;66;1008;-72
2022/11/26 02:02:28;;;;;;;;;;;;;;;;;;2222975;58;1411;-71
2022/11/26 02:05:06;;;;;;;;;;;;;;;;;;2226745;66;1108;-71
2022/11/26 02:07:39;;;;;;;;;;;;;;;;;;2227295;66;1318;-72
2022/11/26 02:10:13;;;;;;;;;;;;;;;;;;2226409;66;984;-71
2022/11/26 02:12:47;;;;;;;;;;;;;;;;;;2226564;66;1075;-72
2022/11/26 02:15:26;;;;;;;;;;;;;;;;;;2225811;66;1992;-71
2022/11/26 02:18:01;;;;;;;;;;;;;;;;;;2227329;58;1142;-71
2022/11/26 02:20:43;;;;;;;;;;;;;;;;;;2226723;59;1047;-71
2022/11/26 02:23:27;;;;;;;;;;;;;;;;;;2221876;58;2130;-71
2022/11/26 02:26:11;;;;;;;;;;;;;;;;;;2227250;58;1599;-71
2022/11/26 02:29:01;;;;;;;;;;;;;;;;;;2226733;66;1006;-71
2022/11/26 02:31:41;;;;;;;;;;;;;;;;;;2228081;66;1153;-71
2022/11/26 02:34:16;;;;;;;;;;;;;;;;;;2227338;58;1986;-71
2022/11/26 02:36:53;;;;;;;;;;;;;;;;;;2227947;66;1294;-71
2022/11/26 02:39:27;;;;;;;;;;;;;;;;;;2227345;58;1786;-72
2022/11/26 02:42:02;;;;;;;;;;;;;;;;;;2227300;66;1042;-71
2022/11/26 02:44:43;;;;;;;;;;;;;;;;;;2226943;66;1024;-71
2022/11/26 02:47:20;;;;;;;;;;;;;;;;;;2227419;58;1213;-71
2022/11/26 02:49:54;;;;;;;;;;;;;;;;;;2223395;66;1423;-71
2022/11/26 02:52:29;;;;;;;;;;;;;;;;;;2225795;58;1977;-71
2022/11/26 02:55:03;;;;;;;;;;;;;;;;;;2225633;66;1947;-71
2022/11/26 02:57:39;;;;;;;;;;;;;;;;;;2226689;66;1280;-71
2022/11/26 03:00:13;;;;;;;;;;;;;;;;;;2226541;66;1212;-71
2022/11/26 03:02:51;;;;;;;;;;;;;;;;;;2226366;58;1962;-71
2022/11/26 03:05:25;;;;;;;;;;;;;;;;;;2226031;66;1307;-71
2022/11/26 03:07:58;;;;;;;;;;;;;;;;;;2226014;66;1204;-71
2022/11/26 03:10:31;;;;;;;;;;;;;;;;;;2226905;66;1281;-71
2022/11/26 03:13:05;;;;;;;;;;;;;;;;;;2226207;66;1109;-71
2022/11/26 03:15:38;;;;;;;;;;;;;;;;;;2226628;66;1917;-71
2022/11/26 03:18:14;;;;;;;;;;;;;;;;;;2226838;58;1287;-71
2022/11/26 03:20:47;;;;;;;;;;;;;;;;;;2226140;66;1088;-71
2022/11/26 03:23:20;;;;;;;;;;;;;;;;;;2226151;58;1241;-71
2022/11/26 03:25:53;;;;;;;;;;;;;;;;;;2225691;58;1501;-71
2022/11/26 03:28:26;;;;;;;;;;;;;;;;;;2226139;66;1150;-71
2022/11/26 03:30:59;;;;;;;;;;;;;;;;;;2226415;66;1047;-71
2022/11/26 03:33:35;;;;;;;;;;;;;;;;;;2226219;58;1416;-71
2022/11/26 03:36:09;;;;;;;;;;;;;;;;;;2226453;58;1933;-71
2022/11/26 03:38:42;;;;;;;;;;;;;;;;;;2226392;66;1305;-72
2022/11/26 03:41:16;;;;;;;;;;;;;;;;;;2225853;66;1206;-71
2022/11/26 03:43:49;;;;;;;;;;;;;;;;;;2225989;58;1184;-71
2022/11/26 03:46:22;;;;;;;;;;;;;;;;;;2226276;58;1222;-71
2022/11/26 03:48:58;;;;;;;;;;;;;;;;;;2225915;59;1112;-72
2022/11/26 03:51:31;;;;;;;;;;;;;;;;;;2226018;58;1084;-71
2022/11/26 03:54:04;;;;;;;;;;;;;;;;;;2222561;66;1393;-71
2022/11/26 03:56:37;;;;;;;;;;;;;;;;;;2226677;58;1943;-71
2022/11/26 03:59:11;;;;;;;;;;;;;;;;;;2226233;58;1069;-71
2022/11/26 04:01:44;;;;;;;;;;;;;;;;;;2224113;58;1418;-71
2022/11/26 04:04:20;;;;;;;;;;;;;;;;;;2226757;66;1124;-71
2022/11/26 04:06:53;;;;;;;;;;;;;;;;;;2227294;59;1285;-71
2022/11/26 04:09:26;;;;;;;;;;;;;;;;;;2227629;66;1205;-71
2022/11/26 04:11:59;;;;;;;;;;;;;;;;;;2225993;66;2161;-71
2022/11/26 04:14:32;;;;;;;;;;;;;;;;;;2226479;58;1936;-71
2022/11/26 04:17:05;;;;;;;;;;;;;;;;;;2226135;58;1309;-71
2022/11/26 04:19:41;;;;;;;;;;;;;;;;;;2226987;58;1384;-71
2022/11/26 04:22:15;;;;;;;;;;;;;;;;;;2226567;66;1132;-71
2022/11/26 04:24:48;;;;;;;;;;;;;;;;;;2226457;58;1574;-71
2022/11/26 04:27:21;;;;;;;;;;;;;;;;;;2227565;66;1188;-71
2022/11/26 04:29:54;;;;;;;;;;;;;;;;;;2227984;66;1109;-71
2022/11/26 04:32:27;;;;;;;;;;;;;;;;;;2227415;66;1099;-71
2022/11/26 04:35:03;;;;;;;;;;;;;;;;;;2227411;58;1911;-71
2022/11/26 04:37:36;;;;;;;;;;;;;;;;;;2227848;66;1279;-71
2022/11/26 04:40:10;;;;;;;;;;;;;;;;;;2227161;66;978;-71
2022/11/26 04:42:43;;;;;;;;;;;;;;;;;;2227224;66;1102;-71
2022/11/26 04:45:17;;;;;;;;;;;;;;;;;;2227394;66;1334;-72
2022/11/26 04:47:50;;;;;;;;;;;;;;;;;;2226517;58;1172;-71
2022/11/26 04:50:26;;;;;;;;;;;;;;;;;;2226298;58;1882;-71
2022/11/26 04:52:59;;;;;;;;;;;;;;;;;;2226408;66;1034;-72
2022/11/26 04:55:32;;;;;;;;;;;;;;;;;;2226504;66;1943;-71
2022/11/26 04:58:06;;;;;;;;;;;;;;;;;;2226483;66;1054;-71
2022/11/26 05:00:39;;;;;;;;;;;;;;;;;;2226853;58;1350;-71
2022/11/26 05:03:12;;;;;;;;;;;;;;;;;;2226954;58;1480;-71
2022/11/26 05:05:48;;;;;;;;;;;;;;;;;;2222836;66;1311;-71
2022/11/26 05:08:21;;;;;;;;;;;;;;;;;;2226537;66;1054;-71
2022/11/26 05:10:54;;;;;;;;;;;;;;;;;;2226957;66;1052;-72
2022/11/26 05:13:28;;;;;;;;;;;;;;;;;;2223074;66;2156;-71
2022/11/26 05:16:01;;;;;;;;;;;;;;;;;;2226335;66;1951;-71
2022/11/26 11:24:24;;;;;;;;;;;;;;;;;;2214526;59;1004;-74
2022/11/26 12:25:55;;;;;;;;;;;;;;;;;;2290353;59;1900;-75
2022/11/26 12:28:47;;;;;;;;;;;;;;;;;;2207275;59;1203;-75
2022/11/26 12:31:24;;;;;;;;;;;;;;;;;;2200117;59;2779;-75
2022/11/26 12:34:03;;;;;;;;;;;;;;;;;;2203593;67;1242;-75
2022/11/26 14:07:45;;;;;;;;;;;;;;;;;;2202091;59;1329;-73
2022/11/26 14:10:37;;;;;;;;;;;;;;;;;;2203621;59;1089;-73
2022/11/26 14:13:15;;;;;;;;;;;;;;;;;;2204285;67;1202;-73
2022/11/26 14:15:59;;;;;;;;;;;;;;;;;;2203402;59;1985;-73
2022/11/26 15:19:12;;;;;;;;;;;;;;;;;;2159011;68;1553;-76
2022/11/26 15:35:30;;;;;;;;;;;;;;;;;;2210567;59;1964;-76
2022/11/26 15:38:05;;;;;;;;;;;;;;;;;;2210489;59;1413;-76
2022/11/26 15:40:57;;;;;;;;;;;;;;;;;;2205628;67;1253;-76
2022/11/26 15:43:39;;;;;;;;;;;;;;;;;;2207535;59;1100;-76
2022/11/26 15:46:17;;;;;;;;;;;;;;;;;;2204438;59;1261;-76
2022/11/26 15:49:05;;;;;;;;;;;;;;;;;;2204481;67;1167;-76
2022/11/26 15:51:47;;;;;;;;;;;;;;;;;;2207318;59;1324;-76
2022/11/26 15:54:23;;;;;;;;;;;;;;;;;;2204776;67;1236;-76
2022/11/26 15:56:57;;;;;;;;;;;;;;;;;;2207445;59;1930;-76
2022/11/26 15:59:35;;;;;;;;;;;;;;;;;;2208545;59;1076;-76
2022/11/26 16:02:17;;;;;;;;;;;;;;;;;;2203771;67;1333;-76
2022/11/26 16:05:06;;;;;;;;;;;;;;;;;;2204956;67;1251;-76
2022/11/26 16:07:57;;;;;;;;;;;;;;;;;;2207594;59;1086;-76
2022/11/26 16:10:38;;;;;;;;;;;;;;;;;;2204292;59;1269;-76
2022/11/26 16:16:26;;;;;;;;;;;;;;;;;;2208246;59;1918;-76
2022/11/26 16:19:03;;;;;;;;;;;;;;;;;;2207739;59;1134;-76
2022/11/26 16:21:40;;;;;;;;;;;;;;;;;;2207127;59;1263;-76
2022/11/26 16:24:25;;;;;;;;;;;;;;;;;;2203553;67;1094;-76
2022/11/26 16:27:00;;;;;;;;;;;;;;;;;;2205008;67;1297;-76
2022/11/26 16:29:34;;;;;;;;;;;;;;;;;;2207604;59;1289;-76
2022/11/26 16:32:07;;;;;;;;;;;;;;;;;;2207856;59;1268;-76
2022/11/26 16:34:40;;;;;;;;;;;;;;;;;;2208027;67;1140;-76
2022/11/26 16:37:19;;;;;;;;;;;;;;;;;;2207493;59;1975;-76
2022/11/26 16:40:01;;;;;;;;;;;;;;;;;;2208275;67;1212;-76
2022/11/26 16:42:34;;;;;;;;;;;;;;;;;;2207019;59;1653;-75
2022/11/26 16:45:08;;;;;;;;;;;;;;;;;;2204925;59;2006;-76
2022/11/26 16:47:43;;;;;;;;;;;;;;;;;;2208753;59;1391;-76
2022/11/26 16:50:17;;;;;;;;;;;;;;;;;;2207793;67;1254;-76
2022/11/26 16:52:51;;;;;;;;;;;;;;;;;;2207959;59;1036;-76
2022/11/26 16:55:28;;;;;;;;;;;;;;;;;;2207688;67;1188;-76
2022/11/26 16:58:02;;;;;;;;;;;;;;;;;;2207719;59;1924;-76
2022/11/26 17:00:38;;;;;;;;;;;;;;;;;;2207944;67;1322;-76
2022/11/26 17:03:11;;;;;;;;;;;;;;;;;;2207717;67;1040;-76
2022/11/26 17:05:44;;;;;;;;;;;;;;;;;;2208173;59;1184;-76
2022/11/26 17:08:18;;;;;;;;;;;;;;;;;;2208209;67;1079;-76
2022/11/26 17:10:54;;;;;;;;;;;;;;;;;;2208785;67;1303;-76
2022/11/26 17:13:28;;;;;;;;;;;;;;;;;;2208107;59;1127;-76
2022/11/26 17:16:03;;;;;;;;;;;;;;;;;;2207830;59;4476;-76
2022/11/26 17:18:36;;;;;;;;;;;;;;;;;;2207577;59;1061;-75
2022/11/26 17:21:09;;;;;;;;;;;;;;;;;;2207174;67;1257;-76
2022/11/26 17:23:43;;;;;;;;;;;;;;;;;;2207892;67;1192;-76
2022/11/26 17:26:21;;;;;;;;;;;;;;;;;;2204400;67;1189;-76
2022/11/26 17:28:54;;;;;;;;;;;;;;;;;;2207758;59;1170;-76
2022/11/26 17:31:28;;;;;;;;;;;;;;;;;;2207175;59;1265;-76
2022/11/26 17:34:01;;;;;;;;;;;;;;;;;;2207330;67;1044;-76
2022/11/26 17:36:34;;;;;;;;;;;;;;;;;;2207765;59;1947;-75
2022/11/26 17:39:08;;;;;;;;;;;;;;;;;;2208068;67;1222;-75
2022/11/26 17:41:43;;;;;;;;;;;;;;;;;;2207853;67;1203;-75
2022/11/26 17:44:17;;;;;;;;;;;;;;;;;;2208157;67;1062;-75
2022/11/26 17:46:50;;;;;;;;;;;;;;;;;;2207787;59;1671;-75
2022/11/26 17:49:23;;;;;;;;;;;;;;;;;;2207294;67;1136;-76
2022/11/26 17:51:56;;;;;;;;;;;;;;;;;;2208447;59;1298;-76
2022/11/26 17:54:29;;;;;;;;;;;;;;;;;;2207883;67;1275;-75
2022/11/26 17:57:05;;;;;;;;;;;;;;;;;;2207836;67;1941;-75
2022/11/26 17:59:39;;;;;;;;;;;;;;;;;;2208315;67;1180;-75
2022/11/26 19:11:35;;;;;;;;;;;;;;;;;;2301187;53;1674;-72
2022/11/26 19:14:08;;;;;;;;;;;;;;;;;;2203861;67;1285;-72
2022/11/26 19:16:42;;;;;;;;;;;;;;;;;;2203067;59;1922;-72
2022/11/26 19:19:15;;;;;;;;;;;;;;;;;;2202487;67;1250;-72
2022/11/26 19:21:49;;;;;;;;;;;;;;;;;;2202638;67;1170;-72
2022/11/26 19:24:22;;;;;;;;;;;;;;;;;;2201069;67;986;-72
2022/11/26 19:37:38;;;;;;;;;;;;;;;;;;2242589;53;1935;-72
2022/11/26 19:40:11;;;;;;;;;;;;;;;;;;2203621;67;1096;-72
2022/11/26 19:42:44;;;;;;;;;;;;;;;;;;2203421;67;1098;-72
2022/11/26 19:45:18;;;;;;;;;;;;;;;;;;2203601;59;1090;-72
2022/11/26 19:47:52;;;;;;;;;;;;;;;;;;2202699;59;1339;-72
2022/11/26 19:50:25;;;;;;;;;;;;;;;;;;2201474;67;976;-72
2022/11/26 19:53:01;;;;;;;;;;;;;;;;;;2201758;67;1235;-72
2022/11/26 19:55:34;;;;;;;;;;;;;;;;;;2202642;59;1356;-72
2022/11/26 19:58:07;;;;;;;;;;;;;;;;;;2201407;67;1932;-72
2022/11/26 20:00:41;;;;;;;;;;;;;;;;;;2202076;67;1156;-72
2022/11/26 20:03:14;;;;;;;;;;;;;;;;;;2201483;60;1168;-72
2022/11/26 20:05:47;;;;;;;;;;;;;;;;;;2200502;67;1257;-72
2022/11/26 20:08:23;;;;;;;;;;;;;;;;;;2201487;67;1233;-72
2022/11/26 20:11:01;;;;;;;;;;;;;;;;;;2202387;59;1192;-72
2022/11/26 20:13:35;;;;;;;;;;;;;;;;;;2200523;67;1130;-72
2022/11/26 20:16:09;;;;;;;;;;;;;;;;;;2200457;59;1294;-72
2022/11/26 20:18:42;;;;;;;;;;;;;;;;;;2201935;67;1945;-72
2022/11/26 20:21:18;;;;;;;;;;;;;;;;;;2201038;67;1126;-72
2022/11/26 20:23:55;;;;;;;;;;;;;;;;;;2201240;67;1056;-72
2022/11/26 20:26:29;;;;;;;;;;;;;;;;;;2202578;67;1113;-72
2022/11/26 20:29:03;;;;;;;;;;;;;;;;;;2201695;60;1218;-72
2022/11/26 20:31:40;;;;;;;;;;;;;;;;;;2200787;67;1144;-72
2022/11/26 20:34:14;;;;;;;;;;;;;;;;;;2201057;59;1112;-72
2022/11/26 20:36:47;;;;;;;;;;;;;;;;;;2201559;59;1985;-72
2022/11/26 20:39:24;;;;;;;;;;;;;;;;;;2200740;67;1148;-72
2022/11/26 20:41:57;;;;;;;;;;;;;;;;;;2201058;67;1291;-72
2022/11/26 20:44:30;;;;;;;;;;;;;;;;;;2201306;59;1431;-72
2022/11/26 20:47:03;;;;;;;;;;;;;;;;;;2200020;59;1310;-72
2022/11/26 20:49:38;;;;;;;;;;;;;;;;;;2202225;67;1121;-72
2022/11/26 20:52:11;;;;;;;;;;;;;;;;;;2201759;59;1542;-72
2022/11/26 20:54:47;;;;;;;;;;;;;;;;;;2201527;67;1158;-72
2022/11/26 20:57:22;;;;;;;;;;;;;;;;;;2200219;59;1938;-72
2022/11/26 20:59:55;;;;;;;;;;;;;;;;;;2202054;67;1326;-72
2022/11/26 21:02:28;;;;;;;;;;;;;;;;;;2201724;67;1264;-72
2022/11/26 21:05:02;;;;;;;;;;;;;;;;;;2200939;67;1161;-72
2022/11/26 21:07:35;;;;;;;;;;;;;;;;;;2202020;67;1246;-72
2022/11/26 21:10:14;;;;;;;;;;;;;;;;;;2201732;59;1148;-72
2022/11/26 21:12:47;;;;;;;;;;;;;;;;;;2201133;67;1137;-72
2022/11/26 21:15:21;;;;;;;;;;;;;;;;;;2198672;59;1926;-72
2022/11/26 21:17:54;;;;;;;;;;;;;;;;;;2202606;59;1941;-72
2022/11/26 21:20:27;;;;;;;;;;;;;;;;;;2201403;67;1207;-72
2022/11/26 21:23:00;;;;;;;;;;;;;;;;;;2201953;67;1104;-72
2022/11/26 21:25:37;;;;;;;;;;;;;;;;;;2202078;67;1046;-72
2022/11/26 21:28:13;;;;;;;;;;;;;;;;;;2200488;67;1195;-72
2022/11/26 21:30:46;;;;;;;;;;;;;;;;;;2201419;67;1005;-72
2022/11/26 21:33:19;;;;;;;;;;;;;;;;;;2201343;67;1244;-72
2022/11/26 21:35:52;;;;;;;;;;;;;;;;;;2200563;59;1172;-72
2022/11/26 21:38:25;;;;;;;;;;;;;;;;;;2200838;67;1989;-72
2022/11/26 21:41:05;;;;;;;;;;;;;;;;;;2201289;59;1161;-72
2022/11/26 21:43:38;;;;;;;;;;;;;;;;;;2201591;67;1141;-72
2022/11/26 21:46:14;;;;;;;;;;;;;;;;;;2200339;59;1359;-72
2022/11/26 21:48:47;;;;;;;;;;;;;;;;;;2202755;67;1183;-72
2022/11/26 21:51:21;;;;;;;;;;;;;;;;;;2201023;67;1201;-72
2022/11/26 21:53:55;;;;;;;;;;;;;;;;;;2199432;67;1121;-72
2022/11/26 21:56:32;;;;;;;;;;;;;;;;;;2201405;59;1308;-72
2022/11/26 21:59:05;;;;;;;;;;;;;;;;;;2200565;67;1918;-72
2022/11/26 22:01:38;;;;;;;;;;;;;;;;;;2199909;67;1141;-72
2022/11/26 22:04:13;;;;;;;;;;;;;;;;;;2200887;67;1094;-72
2022/11/26 22:06:47;;;;;;;;;;;;;;;;;;2200815;67;1194;-72
2022/11/26 22:09:20;;;;;;;;;;;;;;;;;;2200573;59;1217;-72
2022/11/26 22:11:56;;;;;;;;;;;;;;;;;;2197252;67;1912;-72
2022/11/26 22:14:29;;;;;;;;;;;;;;;;;;2200979;59;1117;-72
2022/11/26 22:17:02;;;;;;;;;;;;;;;;;;2200899;59;1269;-72
2022/11/26 22:19:36;;;;;;;;;;;;;;;;;;2200291;67;1940;-72
2022/11/26 22:22:09;;;;;;;;;;;;;;;;;;2200960;67;1089;-72
2022/11/26 22:24:42;;;;;;;;;;;;;;;;;;2201339;67;1095;-72
2022/11/26 22:27:18;;;;;;;;;;;;;;;;;;2199318;67;1303;-72
2022/11/26 22:29:51;;;;;;;;;;;;;;;;;;2202231;67;1167;-72
2022/11/26 22:32:24;;;;;;;;;;;;;;;;;;2200713;67;1213;-72
2022/11/26 22:34:57;;;;;;;;;;;;;;;;;;2200271;67;1223;-72
2022/11/26 22:37:30;;;;;;;;;;;;;;;;;;2201270;59;1933;-72
2022/11/26 22:40:04;;;;;;;;;;;;;;;;;;2202185;67;1116;-72
2022/11/26 22:42:41;;;;;;;;;;;;;;;;;;2200918;67;983;-72
2022/11/26 22:45:14;;;;;;;;;;;;;;;;;;2199855;67;1088;-72
2022/11/26 22:47:47;;;;;;;;;;;;;;;;;;2202039;59;1353;-72
2022/11/26 22:50:21;;;;;;;;;;;;;;;;;;2200986;67;1229;-72
2022/11/26 22:52:54;;;;;;;;;;;;;;;;;;2200246;67;1132;-72
2022/11/26 22:55:28;;;;;;;;;;;;;;;;;;2201162;59;1275;-72
2022/11/26 22:58:04;;;;;;;;;;;;;;;;;;2200285;67;1926;-72
2022/11/26 23:00:47;;;;;;;;;;;;;;;;;;2200984;59;2397;-72
2022/11/26 23:03:21;;;;;;;;;;;;;;;;;;2201067;59;2676;-72
2022/11/26 23:05:54;;;;;;;;;;;;;;;;;;2201127;67;1237;-72
2022/11/26 23:08:27;;;;;;;;;;;;;;;;;;2195784;67;2025;-72
2022/11/26 23:11:00;;;;;;;;;;;;;;;;;;2202219;59;1148;-72
2022/11/26 23:13:37;;;;;;;;;;;;;;;;;;2200435;67;1361;-72
2022/11/26 23:16:10;;;;;;;;;;;;;;;;;;2197530;59;1260;-72
2022/11/26 23:18:44;;;;;;;;;;;;;;;;;;2201399;67;1924;-72
2022/11/26 23:21:18;;;;;;;;;;;;;;;;;;2200542;59;1313;-72
2022/11/26 23:23:51;;;;;;;;;;;;;;;;;;2199321;60;1132;-72
2022/11/26 23:26:25;;;;;;;;;;;;;;;;;;2200912;67;1273;-72
2022/11/26 23:29:02;;;;;;;;;;;;;;;;;;2200996;67;1163;-72
2022/11/26 23:31:37;;;;;;;;;;;;;;;;;;2201513;59;1155;-72
2022/11/26 23:34:11;;;;;;;;;;;;;;;;;;2196568;67;1414;-72
2022/11/26 23:36:44;;;;;;;;;;;;;;;;;;2201596;59;1179;-72
2022/11/26 23:39:17;;;;;;;;;;;;;;;;;;2197615;67;1929;-72
2022/11/26 23:41:50;;;;;;;;;;;;;;;;;;2199958;59;1157;-72
2022/11/26 23:44:26;;;;;;;;;;;;;;;;;;2201117;67;1183;-72
2022/11/26 23:46:59;;;;;;;;;;;;;;;;;;2201327;59;1294;-72
2022/11/26 23:49:33;;;;;;;;;;;;;;;;;;2199344;67;1220;-72
2022/11/26 23:52:06;;;;;;;;;;;;;;;;;;2201459;59;1081;-72
2022/11/26 23:54:39;;;;;;;;;;;;;;;;;;2200342;59;1169;-72
2022/11/26 23:57:12;;;;;;;;;;;;;;;;;;2199834;59;1282;-71
2022/11/26 23:59:48;;;;;;;;;;;;;;;;;;2201626;67;1936;-72
